LiveATC.Net - Listen to live air traffic control over the Internet!


ICAO: EIDW  IATA: DUB   Airport: Dublin International Airport
City: Dublin
Country: Ireland   Continent: Europe
EIDW METAR Weather: EIDW 250930Z 26013KT 9999 FEW018CB BKN023 16/10 Q1017 NOSIG
EIDW Flight Activity (FlightAware)
EIDW Del/Gnd/Twr/App/Center
Feed Status: UP   Listeners: 26
Listen right in your browser - requires Flash (in browser, requires Flash)
Click here to listen with your own player (launches your MP3 player)
EIDW Del/Gnd/Twr/App/Center Audio Archives
FacilityFrequency
Dublin Approach121.100
Dublin Approach (backup)119.550
Dublin Centre North129.175
Dublin Centre South126.250
Dublin Clearance Delivery121.875
Dublin FIS118.500
Dublin Ground121.800
Dublin Tower118.600


NOTICE

Unauthorized use prohibited. See LiveATC.net Terms of Service


Find LiveATC Audio Streams


Airport/ARTCC Code

Frequency
(e.g., 124.400, 128.75)
Site-wide search

Browse LiveATC Feeds
LiveATC Coverage Map
Top 50 LiveATC Feeds
Bad Weather Areas

LiveATC FAQ
Offer a LiveATC Feed
Contact LiveATC.net
Press Inquiries

LiveATC on iPhone
LiveATC on Android

Windows Phone
Windows 8/10

LiveATC Mobile
(Mobile browser)

ATC Audio Archives
Interesting Recordings

LiveATC Forums


Home Page
About LiveATC.net
Make a Donation
LiveATC Store

Terms of Use
Privacy Policy

Canadian Air Freqs

AIRMETs/SIGMETs

FAA Airport Status
Nat'l Airspace Status
Arrival Demand Charts


Server Software By:
Icecast.org
Liquidsoap